Time;durP1;ratioP1;P1;durP2;ratioP2;P2;SDS_P1;SDS_P2;PMS_P1;PMS_P2;Temp;Humidity;BMP_temperature;BMP_pressure;BME280_temperature;BME280_humidity;BME280_pressure;Samples;Min_cycle;Max_cycle;Signal;HPM_P1;HPM_P2
2022/07/22 00:01:57;;;;;;;2.65;2.45;;;;;;;28.05;36.11;100796.03;4917660;29;20406;-76
2022/07/22 00:04:27;;;;;;;3.13;1.83;;;;;;;27.96;36.38;100787.19;4934800;29;20050;-76
2022/07/22 00:06:55;;;;;;;2.47;2.20;;;;;;;27.98;36.02;100796.00;4931225;29;20039;-76
2022/07/22 00:09:23;;;;;;;3.13;2.22;;;;;;;28.00;36.07;100799.25;4939356;29;20051;-76
2022/07/22 00:11:51;;;;;;;1.95;1.85;;;;;;;27.93;36.84;100793.56;4934757;29;20410;-76
2022/07/22 00:14:19;;;;;;;4.75;2.25;;;;;;;27.80;37.06;100787.53;4934898;29;20054;-76
2022/07/22 00:16:47;;;;;;;3.05;2.40;;;;;;;27.76;36.81;100784.69;4933209;29;20055;-75
2022/07/22 00:19:15;;;;;;;3.15;2.00;;;;;;;27.76;37.10;100784.69;4934721;29;20514;-76
2022/07/22 00:21:43;;;;;;;2.33;2.13;;;;;;;27.66;37.83;100779.81;4944111;29;20048;-75
2022/07/22 00:24:18;;;;;;;2.78;2.50;;;;;;;27.61;38.21;100783.81;4934904;29;20246;-75
2022/07/22 00:26:46;;;;;;;4.18;2.10;;;;;;;27.58;38.71;100790.22;4933500;29;20048;-76
2022/07/22 00:29:13;;;;;;;3.03;2.65;;;;;;;27.57;39.48;100778.13;4934791;29;20055;-75
2022/07/22 00:31:42;;;;;;;3.35;2.47;;;;;;;27.45;40.01;100781.25;4934702;29;20545;-75
2022/07/22 00:34:10;;;;;;;3.00;2.33;;;;;;;27.29;40.93;100773.97;4937513;29;20039;-75
2022/07/22 00:36:38;;;;;;;4.70;2.58;;;;;;;27.20;40.90;100777.09;4944553;29;20058;-75
2022/07/22 00:39:06;;;;;;;2.40;2.13;;;;;;;27.05;41.14;100776.19;4936462;29;20040;-76
2022/07/22 00:41:34;;;;;;;3.67;2.70;;;;;;;27.00;41.56;100784.97;4924828;29;20043;-75
2022/07/22 00:44:06;;;;;;;4.38;2.55;;;;;;;26.97;40.82;100780.13;4932577;29;20064;-75
2022/07/22 00:46:36;;;;;;;4.70;2.90;;;;;;;26.90;41.00;100775.25;4934416;29;20583;-76
2022/07/22 00:49:07;;;;;;;3.05;2.40;;;;;;;26.89;41.20;100781.25;4934192;29;20043;-75
2022/07/22 00:51:39;;;;;;;3.47;2.38;;;;;;;26.90;41.16;100780.88;4934398;29;20062;-75
2022/07/22 00:54:08;;;;;;;4.47;2.65;;;;;;;27.02;41.01;100776.97;4932334;29;20052;-76
2022/07/22 00:56:36;;;;;;;3.72;2.75;;;;;;;27.00;41.20;100776.56;4934282;29;20391;-76
2022/07/22 00:59:08;;;;;;;3.17;2.80;;;;;;;26.94;41.23;100780.91;4934008;29;20056;-76
2022/07/22 01:01:36;;;;;;;3.05;2.75;;;;;;;26.85;41.65;100778.41;4934161;29;20051;-76
2022/07/22 01:04:04;;;;;;;5.25;2.95;;;;;;;26.93;41.21;100777.28;4934234;29;20044;-76
2022/07/22 01:06:32;;;;;;;6.70;3.28;;;;;;;26.90;41.36;100778.06;4933306;29;20059;-75
2022/07/22 01:09:01;;;;;;;4.88;3.60;;;;;;;26.91;41.68;100773.22;4935843;29;20537;-76
2022/07/22 01:11:28;;;;;;;4.30;3.45;;;;;;;26.75;42.25;100781.91;4921087;29;20047;-75
2022/07/22 01:13:57;;;;;;;7.25;3.50;;;;;;;26.64;42.47;100784.63;4946701;29;20043;-75
2022/07/22 01:16:25;;;;;;;6.55;3.80;;;;;;;26.59;42.69;100783.00;4920559;29;20047;-75
2022/07/22 01:18:53;;;;;;;4.55;3.95;;;;;;;26.59;42.58;100779.38;4951316;29;20036;-75
2022/07/22 01:21:22;;;;;;;4.82;4.05;;;;;;;26.65;42.50;100786.25;4936976;29;20058;-75
2022/07/22 01:23:50;;;;;;;6.75;4.28;;;;;;;26.52;42.91;100766.88;4936235;29;20047;-76
2022/07/22 01:26:18;;;;;;;8.45;4.10;;;;;;;26.53;42.99;100771.31;4936955;29;20054;-76
2022/07/22 01:28:46;;;;;;;6.55;4.30;;;;;;;26.60;43.19;100780.97;4937272;29;20048;-75
2022/07/22 01:31:14;;;;;;;7.00;4.25;;;;;;;26.53;43.30;100770.47;4935999;29;20482;-75
2022/07/22 01:33:42;;;;;;;6.35;4.15;;;;;;;26.62;43.00;100778.59;4936235;29;20411;-75
2022/07/22 01:36:10;;;;;;;7.70;4.38;;;;;;;26.53;43.25;100778.91;4935181;29;20043;-76
2022/07/22 01:38:39;;;;;;;6.75;4.72;;;;;;;26.58;42.94;100775.75;4925743;29;20063;-75
2022/07/22 01:41:07;;;;;;;10.07;4.93;;;;;;;26.47;43.48;100769.22;4936477;29;20051;-75
2022/07/22 01:43:37;;;;;;;7.28;4.40;;;;;;;26.41;43.02;100778.00;4935777;29;20050;-75
2022/07/22 01:46:05;;;;;;;7.80;4.53;;;;;;;26.34;43.88;100777.13;4920049;29;20039;-75
2022/07/22 01:48:35;;;;;;;5.30;4.45;;;;;;;26.37;43.20;100784.75;4932400;29;20044;-75
2022/07/22 01:51:03;;;;;;;8.48;4.20;;;;;;;26.34;43.52;100772.31;4933644;29;20490;-76
2022/07/22 01:53:31;;;;;;;6.43;4.72;;;;;;;26.37;43.69;100776.34;4932554;29;20055;-75
2022/07/22 01:56:00;;;;;;;7.00;4.68;;;;;;;26.47;43.05;100781.25;4934948;29;21667;-75
2022/07/22 01:58:30;;;;;;;6.35;4.45;;;;;;;26.49;43.69;100775.28;4932167;29;20051;-75
2022/07/22 02:01:08;;;;;;;5.13;4.35;;;;;;;26.48;43.25;100782.09;4934909;29;20055;-75
2022/07/22 02:03:36;;;;;;;7.57;4.82;;;;;;;26.45;43.34;100771.63;4932448;29;20487;-75
2022/07/22 02:06:07;;;;;;;5.50;4.60;;;;;;;26.52;43.31;100783.72;4934166;29;20044;-75
2022/07/22 02:08:35;;;;;;;5.90;4.28;;;;;;;26.55;43.11;100777.31;4952859;29;20054;-75
2022/07/22 02:11:06;;;;;;;7.65;4.03;;;;;;;26.46;44.00;100779.66;4941154;29;20398;-75
2022/07/22 02:13:41;;;;;;;7.35;4.25;;;;;;;26.49;43.38;100786.50;4919281;29;20051;-75
2022/07/22 02:16:09;;;;;;;6.85;4.63;;;;;;;26.47;43.46;100780.44;4938462;29;20039;-75
2022/07/22 02:18:45;;;;;;;7.15;4.63;;;;;;;26.35;44.13;100781.53;4919024;29;20044;-76
2022/07/22 02:21:13;;;;;;;6.45;4.47;;;;;;;26.32;44.29;100779.50;4936205;29;20411;-75
2022/07/22 02:23:41;;;;;;;8.43;4.03;;;;;;;26.32;44.29;100774.69;4939886;29;20073;-75
2022/07/22 02:26:10;;;;;;;6.50;4.50;;;;;;;26.26;44.64;100765.84;4931859;29;20392;-76
2022/07/22 02:28:38;;;;;;;6.50;4.38;;;;;;;26.18;45.02;100769.69;4931772;29;20134;-75
2022/07/22 02:31:05;;;;;;;10.18;4.28;;;;;;;26.14;45.67;100768.84;4934727;29;20039;-76
2022/07/22 02:33:33;;;;;;;5.25;4.28;;;;;;;26.13;44.64;100778.44;4936144;29;20056;-75
2022/07/22 02:36:03;;;;;;;6.20;4.50;;;;;;;26.10;45.68;100779.22;4931514;29;20047;-75
2022/07/22 02:38:33;;;;;;;7.28;4.13;;;;;;;26.08;44.76;100778.78;4925204;29;20048;-76
2022/07/22 02:41:01;;;;;;;5.78;4.15;;;;;;;26.06;45.25;100772.78;4931720;29;20044;-76
2022/07/22 02:43:30;;;;;;;7.82;4.32;;;;;;;26.05;46.38;100782.38;4934139;29;20066;-76
2022/07/22 02:45:58;;;;;;;6.75;4.55;;;;;;;26.06;45.52;100778.38;4935709;29;20040;-76
2022/07/22 02:48:39;;;;;;;6.63;4.00;;;;;;;26.07;44.73;100783.59;4918773;29;20483;-75
2022/07/22 02:51:14;;;;;;;6.60;3.88;;;;;;;26.17;44.57;100790.53;4919240;29;20059;-76
2022/07/22 02:53:42;;;;;;;6.53;4.07;;;;;;;26.15;44.96;100798.53;4935755;29;20052;-76
2022/07/22 02:56:10;;;;;;;5.80;3.90;;;;;;;26.21;44.61;100788.59;4933157;29;20036;-76
2022/07/22 02:58:39;;;;;;;5.43;3.50;;;;;;;26.17;44.98;100790.53;4931055;29;20040;-76
2022/07/22 03:01:07;;;;;;;5.15;3.47;;;;;;;26.22;44.00;100793.00;4932164;29;20051;-76
2022/07/22 03:03:44;;;;;;;4.80;3.40;;;;;;;26.19;44.06;100788.13;4931370;29;20410;-76
2022/07/22 03:06:12;;;;;;;3.83;3.53;;;;;;;26.14;45.72;100791.28;4930127;29;20059;-76
2022/07/22 03:08:45;;;;;;;4.03;3.30;;;;;;;26.12;44.03;100788.88;4953210;29;20043;-76
2022/07/22 03:11:14;;;;;;;4.65;3.20;;;;;;;26.11;44.03;100792.06;4937537;29;20043;-76
2022/07/22 03:13:42;;;;;;;3.30;3.00;;;;;;;26.10;44.28;100790.44;4953376;29;20043;-76
2022/07/22 03:16:11;;;;;;;3.42;3.05;;;;;;;26.08;45.59;100788.03;4937614;29;20525;-76
2022/07/22 03:18:39;;;;;;;4.00;3.22;;;;;;;26.03;45.31;100803.19;4939596;29;20035;-76
2022/07/22 03:21:07;;;;;;;6.03;3.50;;;;;;;26.00;45.49;100792.72;4934233;29;20043;-76
2022/07/22 03:23:35;;;;;;;3.72;3.13;;;;;;;25.98;45.94;100799.91;4933931;29;20402;-76
2022/07/22 03:26:03;;;;;;;3.78;3.30;;;;;;;25.89;46.50;100797.38;4935394;29;20390;-76
2022/07/22 03:28:31;;;;;;;5.47;3.33;;;;;;;25.76;47.23;100800.44;4934821;29;20067;-76
2022/07/22 03:30:59;;;;;;;4.10;3.20;;;;;;;25.71;47.56;100806.38;4935355;29;20055;-76
2022/07/22 03:33:27;;;;;;;7.28;3.60;;;;;;;25.68;48.33;100804.34;4935107;29;20059;-76
2022/07/22 03:35:55;;;;;;;3.90;3.50;;;;;;;25.65;47.81;100802.28;4933451;29;20036;-76
2022/07/22 03:38:23;;;;;;;6.20;3.75;;;;;;;25.62;48.08;100803.84;4933874;29;20047;-76
2022/07/22 03:40:52;;;;;;;3.08;2.85;;;;;;;25.54;48.24;100806.91;4933820;29;20046;-76
2022/07/22 03:43:20;;;;;;;9.30;3.95;;;;;;;25.49;48.64;100808.03;4940727;29;20047;-76
2022/07/22 03:45:48;;;;;;;4.25;3.35;;;;;;;25.45;49.15;100807.97;4943119;29;20063;-76
2022/07/22 03:48:16;;;;;;;4.85;3.35;;;;;;;25.52;48.88;100812.06;4938536;29;20044;-76
2022/07/22 03:50:44;;;;;;;3.95;3.55;;;;;;;25.74;48.34;100818.81;4940464;29;20047;-76
2022/07/22 03:53:12;;;;;;;5.80;3.30;;;;;;;25.61;49.08;100816.25;4933696;29;20056;-76
2022/07/22 03:55:41;;;;;;;7.20;2.88;;;;;;;25.75;48.69;100821.25;4917796;29;20494;-76
2022/07/22 03:58:09;;;;;;;3.60;3.30;;;;;;;25.72;49.17;100815.59;4924545;29;20384;-76
2022/07/22 04:00:39;;;;;;;5.18;3.15;;;;;;;25.69;49.29;100821.94;4934522;29;20480;-76
2022/07/22 04:03:07;;;;;;;4.35;3.45;;;;;;;25.66;49.05;100826.31;4916832;29;20072;-76
2022/07/22 04:05:59;;;;;;;4.28;3.58;;;;;;;25.50;49.58;100823.66;4944695;29;20486;-76
2022/07/22 04:08:48;;;;;;;7.30;3.55;;;;;;;25.57;49.31;100826.59;4940807;29;20050;-76
2022/07/22 04:11:17;;;;;;;4.57;3.97;;;;;;;25.57;48.98;100823.00;4934804;29;20039;-76
2022/07/22 04:13:45;;;;;;;4.78;4.18;;;;;;;25.45;49.13;100819.19;4933528;29;20051;-76
2022/07/22 04:16:13;;;;;;;3.90;3.35;;;;;;;25.49;49.38;100827.63;4939464;29;20058;-76
2022/07/22 04:18:50;;;;;;;7.70;3.83;;;;;;;25.41;49.63;100823.13;4933284;29;20043;-76
2022/07/22 04:21:32;;;;;;;4.05;3.50;;;;;;;25.36;49.77;100827.84;4933428;29;20044;-76
2022/07/22 04:24:06;;;;;;;3.90;3.50;;;;;;;25.55;49.31;100828.19;4942090;29;20498;-77
2022/07/22 04:26:36;;;;;;;7.03;3.55;;;;;;;25.92;48.25;100821.88;4933566;29;20154;-75
2022/07/22 04:29:05;;;;;;;6.35;3.33;;;;;;;26.17;47.46;100826.97;4947465;29;20044;-76
2022/07/22 04:31:44;;;;;;;4.22;3.80;;;;;;;26.55;46.34;100822.22;4933560;29;20051;-75
2022/07/22 04:34:35;;;;;;;5.78;3.35;;;;;;;26.66;46.18;100822.34;4920388;29;20067;-76
2022/07/22 04:37:03;;;;;;;6.88;3.72;;;;;;;26.63;46.25;100830.75;4933109;29;20048;-75
2022/07/22 04:39:35;;;;;;;4.72;3.58;;;;;;;26.66;46.43;100827.16;4932036;29;20066;-76
2022/07/22 04:42:03;;;;;;;5.35;3.53;;;;;;;26.73;46.00;100827.22;4921125;29;20044;-75
2022/07/22 04:44:32;;;;;;;4.55;3.42;;;;;;;26.86;45.65;100833.34;4921853;29;20059;-75
2022/07/22 04:47:01;;;;;;;4.70;3.80;;;;;;;26.86;45.62;100833.34;4931750;29;20044;-76
2022/07/22 04:49:36;;;;;;;5.43;4.13;;;;;;;26.90;45.38;100836.19;4936756;29;20051;-75
2022/07/22 04:52:06;;;;;;;4.93;4.00;;;;;;;26.83;45.65;100832.13;4938807;29;20054;-76
2022/07/22 04:54:47;;;;;;;7.38;4.03;;;;;;;26.76;45.91;100831.25;4935562;29;20044;-76
2022/07/22 04:57:15;;;;;;;5.78;4.03;;;;;;;26.83;46.07;100837.75;4944070;29;20051;-75
2022/07/22 04:59:43;;;;;;;10.00;4.60;;;;;;;26.99;45.31;100839.53;4922499;29;20402;-76
2022/07/22 05:02:11;;;;;;;8.45;4.63;;;;;;;27.04;45.34;100838.38;4939142;29;20048;-75
2022/07/22 05:04:41;;;;;;;4.55;3.55;;;;;;;27.25;44.62;100840.53;4914396;29;20051;-75
2022/07/22 05:07:09;;;;;;;7.38;4.40;;;;;;;27.24;44.72;100838.94;4921789;29;20050;-76
2022/07/22 05:09:37;;;;;;;4.60;3.60;;;;;;;27.21;44.64;100839.69;4941809;29;20400;-76
2022/07/22 05:12:07;;;;;;;5.93;3.30;;;;;;;27.25;44.74;100843.34;4923570;29;20090;-76
2022/07/22 05:14:35;;;;;;;8.68;4.32;;;;;;;27.41;44.31;100842.28;4936336;29;20059;-76
2022/07/22 05:17:09;;;;;;;8.98;4.35;;;;;;;27.27;44.70;100838.13;4920542;29;20050;-76
2022/07/22 05:19:52;;;;;;;9.70;3.80;;;;;;;27.45;44.46;100840.28;4945690;29;20043;-75
2022/07/22 05:22:21;;;;;;;6.05;4.03;;;;;;;27.48;44.43;100847.94;4938654;29;20055;-76
2022/07/22 05:24:54;;;;;;;10.57;4.27;;;;;;;27.57;44.38;100844.78;4940973;29;20048;-76
2022/07/22 05:27:23;;;;;;;8.63;4.00;;;;;;;27.79;43.98;100850.53;4931699;29;20044;-76
2022/07/22 05:29:51;;;;;;;5.10;3.45;;;;;;;27.85;43.52;100837.75;4929619;29;20051;-74
2022/07/22 05:32:21;;;;;;;6.13;4.18;;;;;;;27.94;42.98;100851.47;4933974;29;20059;-75
2022/07/22 05:34:53;;;;;;;7.10;4.70;;;;;;;28.07;42.68;100841.47;4933107;29;20048;-74
2022/07/22 05:37:21;;;;;;;4.20;3.70;;;;;;;28.25;42.15;100843.56;4933065;29;20059;-75
2022/07/22 05:39:49;;;;;;;9.40;4.10;;;;;;;28.39;41.43;100849.25;4932274;29;20040;-75
2022/07/22 05:42:17;;;;;;;7.03;4.22;;;;;;;28.35;41.54;100848.41;4935494;29;20040;-75
2022/07/22 05:44:45;;;;;;;6.93;4.20;;;;;;;28.35;41.58;100851.22;4919625;29;20067;-75
2022/07/22 05:47:14;;;;;;;8.15;3.83;;;;;;;28.52;40.83;100852.50;4919089;29;20404;-74
2022/07/22 05:49:42;;;;;;;7.18;4.25;;;;;;;28.63;39.91;100848.91;4918763;29;20491;-75
2022/07/22 05:52:12;;;;;;;4.30;3.88;;;;;;;28.61;40.21;100854.94;4918261;29;20048;-74
2022/07/22 05:54:42;;;;;;;4.32;3.42;;;;;;;28.83;39.71;100849.31;4934261;29;20406;-75
2022/07/22 05:57:09;;;;;;;5.72;3.58;;;;;;;28.91;39.70;100865.06;4935512;29;20054;-75
2022/07/22 05:59:39;;;;;;;6.85;3.55;;;;;;;28.88;39.01;100863.03;4934286;29;20047;-75
2022/07/22 06:02:07;;;;;;;6.55;3.67;;;;;;;28.92;40.07;100858.22;4934495;29;20047;-75
2022/07/22 06:04:45;;;;;;;8.52;3.60;;;;;;;28.97;39.54;100863.47;4938321;29;20051;-75
2022/07/22 06:07:17;;;;;;;8.70;3.50;;;;;;;29.26;38.89;100856.25;4938573;29;20054;-75
2022/07/22 06:09:49;;;;;;;5.80;3.67;;;;;;;29.36;38.73;100863.88;4938523;29;20058;-75
2022/07/22 06:12:17;;;;;;;10.50;3.90;;;;;;;29.45;38.28;100867.09;4954550;29;20402;-75
2022/07/22 06:14:46;;;;;;;8.70;3.75;;;;;;;29.56;37.99;100869.13;4954440;29;20071;-76
2022/07/22 06:17:14;;;;;;;7.20;3.50;;;;;;;29.69;37.76;100866.66;4944958;29;20492;-75
2022/07/22 06:19:42;;;;;;;7.28;3.50;;;;;;;29.74;37.75;100866.25;4927923;29;20510;-75
2022/07/22 06:22:10;;;;;;;5.80;3.80;;;;;;;29.80;37.47;100867.44;4936340;29;20047;-75
2022/07/22 06:24:38;;;;;;;5.53;3.80;;;;;;;29.83;37.49;100869.47;4929273;29;20066;-75
2022/07/22 06:27:06;;;;;;;6.85;3.92;;;;;;;29.87;37.93;100869.47;4934952;29;20411;-75
2022/07/22 06:29:34;;;;;;;5.22;4.03;;;;;;;30.02;36.97;100871.00;4944237;29;20410;-75
2022/07/22 06:32:02;;;;;;;4.68;3.08;;;;;;;30.08;35.93;100865.75;4954061;29;20054;-75
2022/07/22 06:34:30;;;;;;;3.72;2.97;;;;;;;30.25;35.82;100880.25;4955297;29;20047;-75
2022/07/22 06:37:05;;;;;;;5.43;3.20;;;;;;;30.33;35.09;100878.16;4954056;29;20051;-75
2022/07/22 06:39:34;;;;;;;2.88;2.67;;;;;;;30.38;34.68;100877.75;4953804;29;20486;-75
2022/07/22 06:42:28;;;;;;;4.95;3.08;;;;;;;30.49;33.50;100874.88;4939503;29;20054;-75
2022/07/22 06:45:17;;;;;;;3.33;2.70;;;;;;;30.54;33.34;100880.09;4944747;29;20063;-75
2022/07/22 06:47:59;;;;;;;3.05;2.80;;;;;;;30.66;32.70;100870.34;4937917;29;20046;-75
2022/07/22 06:50:29;;;;;;;3.45;2.83;;;;;;;30.73;32.26;100878.00;4937958;29;20062;-75
2022/07/22 06:52:58;;;;;;;4.07;2.92;;;;;;;30.84;32.54;100879.53;4953717;29;20039;-75
2022/07/22 06:55:26;;;;;;;4.78;3.10;;;;;;;30.92;33.19;100879.47;4953710;29;20059;-75
2022/07/22 06:58:02;;;;;;;3.75;2.97;;;;;;;31.03;32.56;100874.53;4953703;29;20509;-76
2022/07/22 07:00:30;;;;;;;3.70;2.67;;;;;;;31.17;32.47;100870.00;4954762;29;20503;-75
2022/07/22 07:03:18;;;;;;;4.50;2.80;;;;;;;31.24;32.62;100869.94;4954518;29;20406;-75
2022/07/22 07:06:13;;;;;;;5.15;3.22;;;;;;;31.30;32.29;100873.97;4953461;29;20537;-75
2022/07/22 07:09:00;;;;;;;12.38;3.38;;;;;;;31.35;32.11;100870.69;4953791;28;20050;-76
2022/07/22 07:11:29;;;;;;;6.43;3.00;;;;;;;31.34;31.90;100866.25;4937453;29;20050;-76
2022/07/22 07:13:57;;;;;;;3.30;3.00;;;;;;;31.51;31.73;100870.13;4953566;29;20054;-75
2022/07/22 07:16:25;;;;;;;3.63;2.97;;;;;;;31.56;31.65;100871.69;4937312;29;20066;-75
2022/07/22 07:18:53;;;;;;;6.93;3.50;;;;;;;31.66;31.89;100869.97;4937084;29;20039;-76
2022/07/22 07:21:22;;;;;;;2.95;2.70;;;;;;;31.72;31.54;100873.16;4945914;29;20062;-75
2022/07/22 07:23:50;;;;;;;5.20;3.00;;;;;;;31.84;31.90;100869.81;4953099;29;20050;-75
2022/07/22 07:26:19;;;;;;;4.82;3.00;;;;;;;31.80;32.05;100871.84;4953144;29;20051;-76
2022/07/22 07:28:47;;;;;;;4.55;2.83;;;;;;;31.89;31.90;100872.19;4938294;29;20384;-75
2022/07/22 07:31:41;;;;;;;5.53;3.00;;;;;;;31.96;30.96;100864.84;4935794;29;20419;-75
2022/07/22 07:34:13;;;;;;;3.00;2.80;;;;;;;32.00;31.45;100865.56;4933890;29;20056;-75
2022/07/22 07:36:41;;;;;;;3.95;3.30;;;;;;;32.10;31.16;100866.69;4934867;29;20048;-75
2022/07/22 07:39:11;;;;;;;3.15;2.85;;;;;;;32.15;30.51;100867.00;4933415;29;20044;-75
2022/07/22 07:41:40;;;;;;;3.33;2.67;;;;;;;32.39;30.23;100872.78;4933587;29;20055;-76
2022/07/22 07:44:10;;;;;;;6.28;3.08;;;;;;;32.43;29.98;100865.06;4933466;29;20497;-75
2022/07/22 07:46:38;;;;;;;3.20;2.90;;;;;;;32.54;30.37;100875.44;4917948;29;20074;-75
2022/07/22 07:49:06;;;;;;;3.58;3.28;;;;;;;32.56;29.72;100870.16;4945483;29;20043;-76
2022/07/22 07:51:34;;;;;;;5.28;2.83;;;;;;;32.46;29.65;100873.94;4933519;29;20487;-75
2022/07/22 07:54:02;;;;;;;4.70;2.72;;;;;;;32.60;29.58;100873.75;4922426;29;20048;-76
2022/07/22 07:56:33;;;;;;;3.40;3.10;;;;;;;32.65;29.25;100864.75;4936393;29;20055;-75
2022/07/22 07:59:02;;;;;;;3.38;3.00;;;;;;;32.67;28.90;100867.97;4936422;29;20047;-76
2022/07/22 08:01:51;;;;;;;4.53;3.20;;;;;;;32.88;29.71;100871.69;4952571;29;20047;-75
2022/07/22 08:04:27;;;;;;;2.75;2.55;;;;;;;32.98;28.95;100870.75;4936696;29;20059;-76
2022/07/22 08:07:07;;;;;;;5.13;2.83;;;;;;;32.96;29.24;100872.41;4948915;29;20371;-75
2022/07/22 08:09:38;;;;;;;4.43;2.95;;;;;;;33.14;28.10;100871.31;4930061;29;20047;-75
2022/07/22 08:12:15;;;;;;;3.25;2.95;;;;;;;33.15;29.00;100876.56;4936733;29;20043;-75
2022/07/22 08:15:05;;;;;;;5.10;2.92;;;;;;;33.18;27.30;100878.53;4936638;29;20054;-75
2022/07/22 08:18:07;;;;;;;2.88;2.35;;;;;;;33.26;26.62;100879.22;4949793;29;20055;-76
2022/07/22 08:20:35;;;;;;;5.13;2.55;;;;;;;33.24;26.60;100873.97;4937753;29;20058;-76
2022/07/22 08:23:04;;;;;;;2.67;2.47;;;;;;;33.33;26.68;100878.28;4956276;29;20414;-76
2022/07/22 08:25:33;;;;;;;2.80;2.60;;;;;;;33.42;26.92;100874.91;4940090;29;20058;-75
2022/07/22 08:28:02;;;;;;;3.35;2.42;;;;;;;33.44;25.60;100873.22;4936985;29;20051;-75
2022/07/22 08:30:30;;;;;;;2.75;2.15;;;;;;;33.55;25.67;100869.41;4920984;29;20055;-75
2022/07/22 08:32:58;;;;;;;3.55;2.53;;;;;;;33.51;25.89;100873.13;4938179;29;20398;-75
2022/07/22 08:35:26;;;;;;;2.65;2.30;;;;;;;33.69;25.37;100876.84;4938034;29;20047;-75
2022/07/22 08:37:54;;;;;;;3.40;2.35;;;;;;;33.81;25.62;100869.75;4936958;29;20048;-76
2022/07/22 08:40:24;;;;;;;3.35;2.67;;;;;;;33.80;25.30;100870.97;4946954;29;20150;-75
2022/07/22 08:42:52;;;;;;;6.10;2.38;;;;;;;33.98;25.70;100871.41;4939737;29;20055;-75
2022/07/22 08:45:20;;;;;;;2.78;2.45;;;;;;;34.02;24.93;100866.44;4937826;29;20074;-75
2022/07/22 08:47:51;;;;;;;3.17;2.80;;;;;;;34.18;25.02;100876.31;4936407;29;20039;-75
2022/07/22 08:50:32;;;;;;;;;;;;;;;34.21;24.03;100871.78;4937123;29;20402;-75
2022/07/22 08:53:13;;;;;;;2.65;1.58;;;;;;;34.20;23.92;100859.63;4936754;29;19922;-75
2022/07/22 08:55:47;;;;;;;2.88;2.22;;;;;;;34.26;24.47;100874.13;4936400;29;20624;-75
2022/07/22 08:58:17;;;;;;;2.03;1.92;;;;;;;34.35;23.88;100874.31;4936374;29;20051;-76
2022/07/22 09:00:45;;;;;;;5.28;2.13;;;;;;;34.38;23.21;100867.75;4936569;29;20068;-76
2022/07/22 09:03:25;;;;;;;2.10;1.90;;;;;;;34.42;22.60;100873.34;4937798;29;20055;-76
2022/07/22 09:05:55;;;;;;;2.10;2.00;;;;;;;34.45;22.80;100869.66;4936191;29;20517;-75
2022/07/22 09:08:23;;;;;;;2.65;2.10;;;;;;;34.39;23.09;100871.38;4949024;29;20051;-75
2022/07/22 09:11:16;;;;;;;2.42;2.22;;;;;;;34.56;24.19;100866.56;4944093;29;20067;-76
2022/07/22 09:14:07;;;;;;;3.33;2.30;;;;;;;34.49;23.91;100870.34;4944936;29;20051;-75
2022/07/22 09:16:58;;;;;;;2.53;2.22;;;;;;;34.66;23.45;100878.94;4937300;29;20054;-76
2022/07/22 09:19:38;;;;;;;2.75;2.00;;;;;;;34.69;23.51;100873.16;4943482;29;20052;-76
2022/07/22 09:22:44;;;;;;;2.55;2.35;;;;;;;34.78;23.50;100872.56;4919795;29;20401;-76
2022/07/22 09:25:35;;;;;;;4.53;2.50;;;;;;;34.82;24.09;100867.59;4948409;29;20048;-75
2022/07/22 09:28:24;;;;;;;3.80;2.10;;;;;;;34.83;23.68;100868.38;4937116;29;20044;-75
2022/07/22 09:31:33;;;;;;;2.67;1.80;;;;;;;34.84;23.38;100865.09;4937209;29;20055;-76
2022/07/22 09:34:34;;;;;;;3.03;2.20;;;;;;;34.87;23.55;100865.44;4936061;29;20058;-75
2022/07/22 09:37:27;;;;;;;3.40;1.85;;;;;;;34.91;23.23;100866.97;4936486;29;20055;-76
2022/07/22 09:40:12;;;;;;;2.35;2.20;;;;;;;34.92;23.41;100862.06;4942378;29;20471;-76
2022/07/22 09:42:51;;;;;;;2.35;1.88;;;;;;;35.01;22.66;100858.63;4935521;29;20048;-75
2022/07/22 09:45:21;;;;;;;2.28;1.92;;;;;;;35.23;22.07;100854.00;4944753;29;20055;-75
2022/07/22 09:47:50;;;;;;;2.90;2.08;;;;;;;35.27;22.56;100856.75;4936773;29;20051;-76
2022/07/22 09:50:29;;;;;;;2.75;1.80;;;;;;;35.17;21.98;100855.78;4936912;29;20039;-75
2022/07/22 09:53:13;;;;;;;3.22;1.90;;;;;;;35.29;22.14;100857.13;4936782;29;20047;-75
2022/07/22 09:55:47;;;;;;;2.13;1.88;;;;;;;35.37;22.50;100847.16;4946442;29;20047;-75
2022/07/22 09:58:16;;;;;;;3.40;1.60;;;;;;;35.47;22.08;100844.47;4939008;29;20491;-75
2022/07/22 10:00:44;;;;;;;2.83;2.08;;;;;;;35.73;22.16;100844.59;4936471;29;20514;-76
2022/07/22 10:03:25;;;;;;;3.53;2.00;;;;;;;35.85;22.07;100838.13;4922754;29;20040;-76
2022/07/22 10:05:55;;;;;;;1.80;1.52;;;;;;;35.82;21.22;100835.41;4935297;29;20051;-76
2022/07/22 10:08:27;;;;;;;2.90;1.70;;;;;;;35.98;21.04;100835.31;4952220;29;20503;-76
2022/07/22 10:11:00;;;;;;;1.30;1.20;;;;;;;35.74;20.65;100837.63;4954474;29;20043;-76
2022/07/22 10:13:30;;;;;;;1.80;1.70;;;;;;;35.86;20.26;100839.72;4938390;29;20513;-76
2022/07/22 10:15:59;;;;;;;4.05;1.95;;;;;;;35.89;21.11;100836.00;4954479;29;20482;-76
2022/07/22 10:18:30;;;;;;;2.20;1.90;;;;;;;36.08;20.51;100827.72;4938007;29;20065;-75
2022/07/22 10:21:08;;;;;;;2.03;1.60;;;;;;;36.18;20.52;100834.34;4948197;29;20047;-75
2022/07/22 10:23:56;;;;;;;2.47;1.88;;;;;;;36.12;19.75;100833.31;4946239;29;20039;-75
2022/07/22 10:26:48;;;;;;;2.25;1.67;;;;;;;36.14;19.18;100839.34;4953639;29;20043;-75
2022/07/22 10:29:39;;;;;;;3.92;1.65;;;;;;;36.15;19.88;100821.00;4935250;29;20060;-75
2022/07/22 10:32:16;;;;;;;1.67;1.58;;;;;;;36.26;19.75;100823.53;4935234;29;20520;-75
2022/07/22 10:35:06;;;;;;;3.63;2.13;;;;;;;36.39;19.57;100821.50;4955098;29;20054;-76
2022/07/22 10:37:34;;;;;;;1.92;1.80;;;;;;;36.54;19.95;100827.53;4930239;29;20043;-75
2022/07/22 10:40:24;;;;;;;2.05;1.95;;;;;;;36.41;19.77;100821.81;4935117;29;20487;-75
2022/07/22 10:43:00;;;;;;;2.20;2.00;;;;;;;36.38;19.79;100817.06;4935662;29;20056;-75
2022/07/22 10:45:45;;;;;;;2.08;1.88;;;;;;;36.41;19.02;100821.03;4935875;29;20068;-75
2022/07/22 10:48:16;;;;;;;2.97;1.75;;;;;;;36.70;19.57;100815.22;4935723;29;20507;-78
2022/07/22 10:50:54;;;;;;;3.28;1.60;;;;;;;37.37;18.68;100826.03;4935734;29;20499;-77
2022/07/22 10:53:24;;;;;;;1.63;1.52;;;;;;;37.80;17.41;100823.69;4935679;29;20063;-77
2022/07/22 10:56:11;;;;;;;3.63;1.52;;;;;;;37.86;16.93;100810.41;4947410;29;20059;-77
2022/07/22 10:58:42;;;;;;;3.25;1.80;;;;;;;37.98;17.75;100811.59;4953356;29;20046;-78
2022/07/22 11:01:12;;;;;;;2.10;1.73;;;;;;;38.10;17.35;100809.13;4954347;29;20062;-77
2022/07/22 11:03:43;;;;;;;4.88;2.08;;;;;;;38.64;16.70;100820.50;4954641;29;20047;-77
2022/07/22 11:06:19;;;;;;;1.77;1.67;;;;;;;38.77;16.13;100811.75;4954459;29;20505;-77
2022/07/22 11:08:51;;;;;;;1.50;1.40;;;;;;;38.56;16.41;100811.41;4937345;29;20050;-77
2022/07/22 11:11:36;;;;;;;2.03;1.75;;;;;;;38.66;17.19;100801.56;4953435;29;20062;-77
2022/07/22 11:14:12;;;;;;;3.72;2.03;;;;;;;39.03;16.72;100798.00;4954502;29;20044;-77
2022/07/22 11:16:41;;;;;;;1.83;1.73;;;;;;;39.18;17.65;100798.19;4954335;29;20050;-78
2022/07/22 11:19:09;;;;;;;2.35;2.17;;;;;;;39.05;18.40;100786.91;4954155;29;20043;-77
2022/07/22 11:21:37;;;;;;;2.20;1.77;;;;;;;39.23;17.40;100788.97;4954319;29;20486;-78
2022/07/22 11:24:12;;;;;;;2.08;1.83;;;;;;;39.00;18.47;100796.13;4954431;29;20050;-78
2022/07/22 11:26:41;;;;;;;2.20;2.00;;;;;;;39.04;17.95;100793.88;4954004;29;20052;-78
2022/07/22 11:29:15;;;;;;;2.92;2.22;;;;;;;38.94;17.83;100792.28;4937153;29;20039;-78
2022/07/22 11:31:43;;;;;;;3.05;2.20;;;;;;;38.61;19.04;100790.78;4954179;29;20043;-78
2022/07/22 11:34:13;;;;;;;2.75;2.30;;;;;;;38.97;18.74;100785.59;4954082;29;20050;-78
2022/07/22 11:36:44;;;;;;;2.75;2.15;;;;;;;39.14;18.46;100791.03;4954064;29;20438;-78
2022/07/22 11:39:17;;;;;;;4.78;2.50;;;;;;;39.32;18.66;100791.03;4936937;29;20486;-77
2022/07/22 11:41:45;;;;;;;3.63;2.40;;;;;;;38.69;18.88;100776.97;4951462;29;20054;-77
2022/07/22 11:44:21;;;;;;;3.10;2.28;;;;;;;38.58;19.08;100777.41;4945645;29;20061;-77
2022/07/22 11:46:51;;;;;;;2.92;2.17;;;;;;;38.39;18.64;100785.09;4953744;29;20461;-77
2022/07/22 11:49:25;;;;;;;2.28;2.17;;;;;;;38.34;19.26;100771.47;4939538;29;20414;-77